sensor_id;sensor_type;location;lat;lon;timestamp;P1;durP1;ratioP1;P2;durP2;ratioP2
52266;SDS011;38223;50.940;4.034;2022-08-19T00:00:36;54.33;;;45.73;;
52266;SDS011;38223;50.940;4.034;2022-08-19T00:03:08;53.05;;;44.50;;
52266;SDS011;38223;50.940;4.034;2022-08-19T00:05:43;56.55;;;44.23;;
52266;SDS011;38223;50.940;4.034;2022-08-19T00:08:18;55.33;;;44.73;;
52266;SDS011;38223;50.940;4.034;2022-08-19T00:10:47;54.63;;;44.15;;
52266;SDS011;38223;50.940;4.034;2022-08-19T00:13:17;56.50;;;46.37;;
52266;SDS011;38223;50.940;4.034;2022-08-19T00:15:54;57.17;;;45.25;;
52266;SDS011;38223;50.940;4.034;2022-08-19T00:18:24;58.02;;;46.80;;
52266;SDS011;38223;50.940;4.034;2022-08-19T00:20:56;58.08;;;46.30;;
52266;SDS011;38223;50.940;4.034;2022-08-19T00:23:30;62.23;;;47.88;;
52266;SDS011;38223;50.940;4.034;2022-08-19T00:26:07;56.92;;;45.73;;
52266;SDS011;38223;50.940;4.034;2022-08-19T00:28:41;58.80;;;47.35;;
52266;SDS011;38223;50.940;4.034;2022-08-19T00:31:12;58.78;;;48.42;;
52266;SDS011;38223;50.940;4.034;2022-08-19T00:33:45;59.90;;;47.30;;
52266;SDS011;38223;50.940;4.034;2022-08-19T00:36:15;60.40;;;47.95;;
52266;SDS011;38223;50.940;4.034;2022-08-19T00:38:45;63.65;;;47.67;;
52266;SDS011;38223;50.940;4.034;2022-08-19T00:41:20;57.93;;;46.68;;
52266;SDS011;38223;50.940;4.034;2022-08-19T00:44:00;56.25;;;45.70;;
52266;SDS011;38223;50.940;4.034;2022-08-19T00:46:29;59.58;;;45.63;;
52266;SDS011;38223;50.940;4.034;2022-08-19T00:49:10;58.95;;;47.17;;
52266;SDS011;38223;50.940;4.034;2022-08-19T00:51:34;54.23;;;45.38;;
52266;SDS011;38223;50.940;4.034;2022-08-19T00:54:06;57.60;;;47.40;;
52266;SDS011;38223;50.940;4.034;2022-08-19T00:56:37;57.75;;;44.15;;
52266;SDS011;38223;50.940;4.034;2022-08-19T00:59:12;60.17;;;46.20;;
52266;SDS011;38223;50.940;4.034;2022-08-19T01:01:46;52.45;;;43.45;;
52266;SDS011;38223;50.940;4.034;2022-08-19T01:04:17;54.00;;;42.78;;
52266;SDS011;38223;50.940;4.034;2022-08-19T01:06:48;50.20;;;40.55;;
52266;SDS011;38223;50.940;4.034;2022-08-19T01:09:21;46.80;;;39.33;;
52266;SDS011;38223;50.940;4.034;2022-08-19T01:11:55;44.05;;;37.70;;
52266;SDS011;38223;50.940;4.034;2022-08-19T01:14:26;44.50;;;37.08;;
52266;SDS011;38223;50.940;4.034;2022-08-19T01:16:59;45.43;;;36.85;;
52266;SDS011;38223;50.940;4.034;2022-08-19T01:22:02;43.95;;;36.00;;
52266;SDS011;38223;50.940;4.034;2022-08-19T01:24:35;43.98;;;36.15;;
52266;SDS011;38223;50.940;4.034;2022-08-19T01:27:11;39.00;;;34.78;;
52266;SDS011;38223;50.940;4.034;2022-08-19T01:29:42;40.63;;;36.15;;
52266;SDS011;38223;50.940;4.034;2022-08-19T01:32:16;40.65;;;34.78;;
52266;SDS011;38223;50.940;4.034;2022-08-19T01:34:45;41.60;;;34.08;;
52266;SDS011;38223;50.940;4.034;2022-08-19T01:37:15;37.63;;;32.70;;
52266;SDS011;38223;50.940;4.034;2022-08-19T01:39:49;35.75;;;31.37;;
52266;SDS011;38223;50.940;4.034;2022-08-19T01:42:20;34.35;;;29.52;;
52266;SDS011;38223;50.940;4.034;2022-08-19T01:44:53;34.05;;;29.27;;
52266;SDS011;38223;50.940;4.034;2022-08-19T01:47:26;36.60;;;28.57;;
52266;SDS011;38223;50.940;4.034;2022-08-19T01:49:58;30.15;;;26.90;;
52266;SDS011;38223;50.940;4.034;2022-08-19T01:52:31;32.88;;;26.85;;
52266;SDS011;38223;50.940;4.034;2022-08-19T01:55:06;31.23;;;27.73;;
52266;SDS011;38223;50.940;4.034;2022-08-19T01:57:41;31.52;;;26.85;;
52266;SDS011;38223;50.940;4.034;2022-08-19T02:00:13;31.85;;;26.17;;
52266;SDS011;38223;50.940;4.034;2022-08-19T02:02:48;29.75;;;26.57;;
52266;SDS011;38223;50.940;4.034;2022-08-19T02:05:16;32.17;;;27.20;;
52266;SDS011;38223;50.940;4.034;2022-08-19T02:07:48;29.45;;;26.25;;
52266;SDS011;38223;50.940;4.034;2022-08-19T02:10:20;33.85;;;26.23;;
52266;SDS011;38223;50.940;4.034;2022-08-19T02:12:52;32.17;;;26.60;;
52266;SDS011;38223;50.940;4.034;2022-08-19T02:15:28;30.80;;;27.27;;
52266;SDS011;38223;50.940;4.034;2022-08-19T02:17:58;28.90;;;25.77;;
52266;SDS011;38223;50.940;4.034;2022-08-19T02:20:28;28.77;;;25.88;;
52266;SDS011;38223;50.940;4.034;2022-08-19T02:23:18;29.72;;;25.88;;
52266;SDS011;38223;50.940;4.034;2022-08-19T02:25:48;29.23;;;25.00;;
52266;SDS011;38223;50.940;4.034;2022-08-19T02:28:22;28.50;;;24.72;;
52266;SDS011;38223;50.940;4.034;2022-08-19T02:30:55;28.27;;;24.60;;
52266;SDS011;38223;50.940;4.034;2022-08-19T02:33:27;29.45;;;24.70;;
52266;SDS011;38223;50.940;4.034;2022-08-19T02:36:03;27.15;;;23.52;;
52266;SDS011;38223;50.940;4.034;2022-08-19T02:38:35;31.60;;;23.12;;
52266;SDS011;38223;50.940;4.034;2022-08-19T02:41:20;26.40;;;23.52;;
52266;SDS011;38223;50.940;4.034;2022-08-19T02:43:41;28.40;;;24.02;;
52266;SDS011;38223;50.940;4.034;2022-08-19T02:46:25;29.23;;;23.52;;
52266;SDS011;38223;50.940;4.034;2022-08-19T02:48:53;27.85;;;22.87;;
52266;SDS011;38223;50.940;4.034;2022-08-19T02:51:28;32.95;;;23.98;;
52266;SDS011;38223;50.940;4.034;2022-08-19T02:54:01;27.85;;;21.85;;
52266;SDS011;38223;50.940;4.034;2022-08-19T02:56:37;26.48;;;21.80;;
52266;SDS011;38223;50.940;4.034;2022-08-19T02:59:07;29.82;;;22.52;;
52266;SDS011;38223;50.940;4.034;2022-08-19T03:01:40;31.17;;;22.02;;
52266;SDS011;38223;50.940;4.034;2022-08-19T03:04:14;29.63;;;22.42;;
52266;SDS011;38223;50.940;4.034;2022-08-19T03:06:46;28.42;;;21.90;;
52266;SDS011;38223;50.940;4.034;2022-08-19T03:09:21;25.75;;;21.40;;
52266;SDS011;38223;50.940;4.034;2022-08-19T03:11:56;29.90;;;20.82;;
52266;SDS011;38223;50.940;4.034;2022-08-19T03:14:25;31.23;;;21.77;;
52266;SDS011;38223;50.940;4.034;2022-08-19T03:16:56;28.25;;;20.88;;
52266;SDS011;38223;50.940;4.034;2022-08-19T03:19:26;27.05;;;20.95;;
52266;SDS011;38223;50.940;4.034;2022-08-19T03:22:02;30.12;;;19.62;;
52266;SDS011;38223;50.940;4.034;2022-08-19T03:24:33;25.25;;;19.30;;
52266;SDS011;38223;50.940;4.034;2022-08-19T03:27:05;27.37;;;19.60;;
52266;SDS011;38223;50.940;4.034;2022-08-19T03:29:37;25.90;;;18.52;;
52266;SDS011;38223;50.940;4.034;2022-08-19T03:32:11;26.05;;;18.98;;
52266;SDS011;38223;50.940;4.034;2022-08-19T03:34:44;28.07;;;17.27;;
52266;SDS011;38223;50.940;4.034;2022-08-19T03:37:16;23.15;;;18.05;;
52266;SDS011;38223;50.940;4.034;2022-08-19T03:39:47;24.80;;;18.20;;
52266;SDS011;38223;50.940;4.034;2022-08-19T03:42:17;20.72;;;17.52;;
52266;SDS011;38223;50.940;4.034;2022-08-19T03:44:51;28.55;;;18.67;;
52266;SDS011;38223;50.940;4.034;2022-08-19T03:47:25;28.35;;;18.70;;
52266;SDS011;38223;50.940;4.034;2022-08-19T03:50:03;21.27;;;17.82;;
52266;SDS011;38223;50.940;4.034;2022-08-19T03:52:35;24.98;;;17.80;;
52266;SDS011;38223;50.940;4.034;2022-08-19T03:55:07;25.68;;;16.85;;
52266;SDS011;38223;50.940;4.034;2022-08-19T03:57:40;26.00;;;16.82;;
52266;SDS011;38223;50.940;4.034;2022-08-19T04:00:12;25.27;;;17.73;;
52266;SDS011;38223;50.940;4.034;2022-08-19T04:02:50;21.80;;;17.60;;
52266;SDS011;38223;50.940;4.034;2022-08-19T04:05:19;19.95;;;17.50;;
52266;SDS011;38223;50.940;4.034;2022-08-19T04:07:51;24.02;;;17.73;;
52266;SDS011;38223;50.940;4.034;2022-08-19T04:10:24;23.12;;;16.82;;
52266;SDS011;38223;50.940;4.034;2022-08-19T04:12:56;23.98;;;17.30;;
52266;SDS011;38223;50.940;4.034;2022-08-19T04:15:29;19.45;;;16.12;;
52266;SDS011;38223;50.940;4.034;2022-08-19T04:17:59;19.90;;;17.30;;
52266;SDS011;38223;50.940;4.034;2022-08-19T04:20:31;19.55;;;16.90;;
52266;SDS011;38223;50.940;4.034;2022-08-19T04:23:04;20.27;;;17.95;;
52266;SDS011;38223;50.940;4.034;2022-08-19T04:25:38;21.82;;;18.10;;
52266;SDS011;38223;50.940;4.034;2022-08-19T04:28:14;24.37;;;17.77;;
52266;SDS011;38223;50.940;4.034;2022-08-19T04:30:51;23.67;;;17.42;;
52266;SDS011;38223;50.940;4.034;2022-08-19T04:33:23;24.12;;;16.95;;
52266;SDS011;38223;50.940;4.034;2022-08-19T04:35:52;26.30;;;18.23;;
52266;SDS011;38223;50.940;4.034;2022-08-19T04:38:29;24.15;;;17.52;;
52266;SDS011;38223;50.940;4.034;2022-08-19T04:41:02;27.70;;;18.25;;
52266;SDS011;38223;50.940;4.034;2022-08-19T04:43:49;27.17;;;17.90;;
52266;SDS011;38223;50.940;4.034;2022-08-19T04:48:55;27.67;;;20.15;;
52266;SDS011;38223;50.940;4.034;2022-08-19T04:51:25;25.70;;;20.32;;
52266;SDS011;38223;50.940;4.034;2022-08-19T04:53:58;27.40;;;20.17;;
52266;SDS011;38223;50.940;4.034;2022-08-19T04:56:31;25.52;;;19.23;;
52266;SDS011;38223;50.940;4.034;2022-08-19T04:59:07;23.95;;;18.73;;
52266;SDS011;38223;50.940;4.034;2022-08-19T05:01:36;27.15;;;19.67;;
52266;SDS011;38223;50.940;4.034;2022-08-19T05:04:11;30.60;;;20.35;;
52266;SDS011;38223;50.940;4.034;2022-08-19T05:06:39;25.50;;;20.90;;
52266;SDS011;38223;50.940;4.034;2022-08-19T05:09:10;25.88;;;20.35;;
52266;SDS011;38223;50.940;4.034;2022-08-19T05:11:42;30.10;;;20.02;;
52266;SDS011;38223;50.940;4.034;2022-08-19T05:14:15;23.45;;;20.12;;
52266;SDS011;38223;50.940;4.034;2022-08-19T05:16:45;22.52;;;19.75;;
52266;SDS011;38223;50.940;4.034;2022-08-19T05:19:19;33.70;;;20.43;;
52266;SDS011;38223;50.940;4.034;2022-08-19T05:22:06;24.45;;;19.17;;
52266;SDS011;38223;50.940;4.034;2022-08-19T05:24:55;23.87;;;20.12;;
52266;SDS011;38223;50.940;4.034;2022-08-19T05:27:25;25.05;;;18.90;;
52266;SDS011;38223;50.940;4.034;2022-08-19T05:29:59;23.40;;;17.70;;
52266;SDS011;38223;50.940;4.034;2022-08-19T05:32:31;20.35;;;16.82;;
52266;SDS011;38223;50.940;4.034;2022-08-19T05:35:05;25.27;;;17.65;;
52266;SDS011;38223;50.940;4.034;2022-08-19T05:37:36;21.20;;;17.27;;
52266;SDS011;38223;50.940;4.034;2022-08-19T05:40:10;20.90;;;16.97;;
52266;SDS011;38223;50.940;4.034;2022-08-19T05:42:41;21.70;;;15.95;;
52266;SDS011;38223;50.940;4.034;2022-08-19T05:45:16;20.62;;;16.40;;
52266;SDS011;38223;50.940;4.034;2022-08-19T05:47:46;22.35;;;15.10;;
52266;SDS011;38223;50.940;4.034;2022-08-19T05:50:18;23.67;;;14.75;;
52266;SDS011;38223;50.940;4.034;2022-08-19T05:52:51;17.30;;;14.73;;
52266;SDS011;38223;50.940;4.034;2022-08-19T05:55:26;22.82;;;14.78;;
52266;SDS011;38223;50.940;4.034;2022-08-19T05:57:57;20.05;;;14.20;;
52266;SDS011;38223;50.940;4.034;2022-08-19T06:00:31;20.17;;;14.38;;
52266;SDS011;38223;50.940;4.034;2022-08-19T06:03:01;22.32;;;14.90;;
52266;SDS011;38223;50.940;4.034;2022-08-19T06:05:34;21.87;;;14.33;;
52266;SDS011;38223;50.940;4.034;2022-08-19T06:08:06;18.65;;;13.98;;
52266;SDS011;38223;50.940;4.034;2022-08-19T06:10:39;19.75;;;14.15;;
52266;SDS011;38223;50.940;4.034;2022-08-19T06:13:09;21.20;;;13.83;;
52266;SDS011;38223;50.940;4.034;2022-08-19T06:15:44;18.65;;;13.18;;
52266;SDS011;38223;50.940;4.034;2022-08-19T06:18:16;19.62;;;13.88;;
52266;SDS011;38223;50.940;4.034;2022-08-19T06:20:50;25.72;;;13.80;;
52266;SDS011;38223;50.940;4.034;2022-08-19T06:23:24;39.03;;;13.40;;
52266;SDS011;38223;50.940;4.034;2022-08-19T06:25:55;35.03;;;13.18;;
52266;SDS011;38223;50.940;4.034;2022-08-19T06:28:25;28.65;;;12.18;;
52266;SDS011;38223;50.940;4.034;2022-08-19T06:30:57;22.37;;;11.60;;
52266;SDS011;38223;50.940;4.034;2022-08-19T06:33:32;16.35;;;11.20;;
52266;SDS011;38223;50.940;4.034;2022-08-19T06:36:06;13.98;;;11.70;;
52266;SDS011;38223;50.940;4.034;2022-08-19T06:38:39;14.23;;;12.58;;
52266;SDS011;38223;50.940;4.034;2022-08-19T06:41:10;14.80;;;11.95;;
52266;SDS011;38223;50.940;4.034;2022-08-19T06:43:44;17.15;;;11.97;;
52266;SDS011;38223;50.940;4.034;2022-08-19T06:46:36;15.00;;;12.13;;
52266;SDS011;38223;50.940;4.034;2022-08-19T06:49:08;16.50;;;11.22;;
52266;SDS011;38223;50.940;4.034;2022-08-19T06:51:43;14.18;;;11.12;;
52266;SDS011;38223;50.940;4.034;2022-08-19T06:54:13;15.05;;;11.78;;
52266;SDS011;38223;50.940;4.034;2022-08-19T06:56:51;12.78;;;10.78;;
52266;SDS011;38223;50.940;4.034;2022-08-19T06:59:24;16.52;;;11.43;;
52266;SDS011;38223;50.940;4.034;2022-08-19T07:02:03;14.75;;;10.65;;
52266;SDS011;38223;50.940;4.034;2022-08-19T07:04:37;13.75;;;10.70;;
52266;SDS011;38223;50.940;4.034;2022-08-19T07:07:09;18.02;;;11.08;;
52266;SDS011;38223;50.940;4.034;2022-08-19T07:09:43;15.25;;;10.18;;
52266;SDS011;38223;50.940;4.034;2022-08-19T07:12:16;11.05;;;9.95;;
52266;SDS011;38223;50.940;4.034;2022-08-19T07:14:46;14.45;;;10.53;;
52266;SDS011;38223;50.940;4.034;2022-08-19T07:17:17;11.78;;;9.38;;
52266;SDS011;38223;50.940;4.034;2022-08-19T07:19:47;10.53;;;8.40;;
52266;SDS011;38223;50.940;4.034;2022-08-19T07:22:17;10.10;;;9.13;;
52266;SDS011;38223;50.940;4.034;2022-08-19T07:24:48;10.60;;;9.10;;
52266;SDS011;38223;50.940;4.034;2022-08-19T07:27:19;16.45;;;9.35;;
52266;SDS011;38223;50.940;4.034;2022-08-19T07:29:52;10.55;;;8.53;;
52266;SDS011;38223;50.940;4.034;2022-08-19T07:32:24;10.15;;;8.30;;
52266;SDS011;38223;50.940;4.034;2022-08-19T07:34:57;10.38;;;8.85;;
52266;SDS011;38223;50.940;4.034;2022-08-19T07:37:29;10.95;;;8.58;;
52266;SDS011;38223;50.940;4.034;2022-08-19T07:39:58;12.67;;;8.80;;
52266;SDS011;38223;50.940;4.034;2022-08-19T07:42:34;13.70;;;8.98;;
52266;SDS011;38223;50.940;4.034;2022-08-19T07:45:04;10.00;;;8.70;;
52266;SDS011;38223;50.940;4.034;2022-08-19T07:47:41;11.08;;;8.20;;
52266;SDS011;38223;50.940;4.034;2022-08-19T07:50:10;13.53;;;8.73;;
52266;SDS011;38223;50.940;4.034;2022-08-19T07:52:44;14.47;;;9.48;;
52266;SDS011;38223;50.940;4.034;2022-08-19T07:55:21;11.55;;;8.93;;
52266;SDS011;38223;50.940;4.034;2022-08-19T07:57:48;13.32;;;9.38;;
52266;SDS011;38223;50.940;4.034;2022-08-19T08:00:19;11.65;;;8.88;;
52266;SDS011;38223;50.940;4.034;2022-08-19T08:02:50;11.95;;;9.45;;
52266;SDS011;38223;50.940;4.034;2022-08-19T08:05:26;9.63;;;8.73;;
52266;SDS011;38223;50.940;4.034;2022-08-19T08:11:02;11.95;;;8.73;;
52266;SDS011;38223;50.940;4.034;2022-08-19T08:13:34;12.93;;;9.05;;
52266;SDS011;38223;50.940;4.034;2022-08-19T08:16:06;13.28;;;9.20;;
52266;SDS011;38223;50.940;4.034;2022-08-19T08:18:40;13.48;;;9.43;;
52266;SDS011;38223;50.940;4.034;2022-08-19T08:21:15;11.10;;;9.05;;
52266;SDS011;38223;50.940;4.034;2022-08-19T08:23:48;10.15;;;8.90;;
52266;SDS011;38223;50.940;4.034;2022-08-19T08:26:19;12.33;;;8.88;;
52266;SDS011;38223;50.940;4.034;2022-08-19T08:28:50;14.50;;;9.05;;
52266;SDS011;38223;50.940;4.034;2022-08-19T08:31:27;11.22;;;9.25;;
52266;SDS011;38223;50.940;4.034;2022-08-19T08:34:03;9.80;;;8.80;;
52266;SDS011;38223;50.940;4.034;2022-08-19T08:36:39;14.58;;;8.83;;
52266;SDS011;38223;50.940;4.034;2022-08-19T08:39:15;13.68;;;8.60;;
52266;SDS011;38223;50.940;4.034;2022-08-19T08:42:06;9.15;;;8.08;;
52266;SDS011;38223;50.940;4.034;2022-08-19T08:44:58;10.60;;;8.63;;
52266;SDS011;38223;50.940;4.034;2022-08-19T08:47:34;11.70;;;8.15;;
52266;SDS011;38223;50.940;4.034;2022-08-19T08:50:09;13.32;;;8.53;;
52266;SDS011;38223;50.940;4.034;2022-08-19T08:52:45;12.53;;;8.28;;
52266;SDS011;38223;50.940;4.034;2022-08-19T08:55:19;11.68;;;8.48;;
52266;SDS011;38223;50.940;4.034;2022-08-19T08:58:01;10.93;;;8.83;;
52266;SDS011;38223;50.940;4.034;2022-08-19T09:03:10;9.95;;;8.73;;
52266;SDS011;38223;50.940;4.034;2022-08-19T09:06:10;13.08;;;9.10;;
52266;SDS011;38223;50.940;4.034;2022-08-19T09:08:47;11.95;;;8.35;;
52266;SDS011;38223;50.940;4.034;2022-08-19T09:14:37;14.13;;;9.10;;
52266;SDS011;38223;50.940;4.034;2022-08-19T09:17:09;12.78;;;8.45;;
52266;SDS011;38223;50.940;4.034;2022-08-19T09:22:26;10.05;;;7.95;;
52266;SDS011;38223;50.940;4.034;2022-08-19T09:24:58;8.45;;;7.47;;
52266;SDS011;38223;50.940;4.034;2022-08-19T09:27:50;11.88;;;7.17;;
52266;SDS011;38223;50.940;4.034;2022-08-19T09:30:24;9.78;;;6.55;;
52266;SDS011;38223;50.940;4.034;2022-08-19T09:32:59;8.03;;;6.20;;
52266;SDS011;38223;50.940;4.034;2022-08-19T09:35:30;7.58;;;6.75;;
52266;SDS011;38223;50.940;4.034;2022-08-19T09:38:05;9.93;;;6.25;;
52266;SDS011;38223;50.940;4.034;2022-08-19T09:40:42;12.25;;;7.17;;
52266;SDS011;38223;50.940;4.034;2022-08-19T09:43:14;7.75;;;7.05;;
52266;SDS011;38223;50.940;4.034;2022-08-19T09:45:44;8.10;;;7.25;;
52266;SDS011;38223;50.940;4.034;2022-08-19T09:48:16;10.63;;;7.15;;
52266;SDS011;38223;50.940;4.034;2022-08-19T09:50:47;9.73;;;6.65;;
52266;SDS011;38223;50.940;4.034;2022-08-19T09:53:17;6.95;;;6.25;;
52266;SDS011;38223;50.940;4.034;2022-08-19T09:55:54;9.08;;;7.15;;
52266;SDS011;38223;50.940;4.034;2022-08-19T09:58:26;7.90;;;6.47;;
52266;SDS011;38223;50.940;4.034;2022-08-19T10:01:00;9.30;;;6.08;;
52266;SDS011;38223;50.940;4.034;2022-08-19T10:03:33;8.30;;;5.90;;
52266;SDS011;38223;50.940;4.034;2022-08-19T10:06:06;6.92;;;6.22;;
52266;SDS011;38223;50.940;4.034;2022-08-19T10:08:37;7.53;;;5.90;;
52266;SDS011;38223;50.940;4.034;2022-08-19T10:11:12;5.70;;;5.17;;
52266;SDS011;38223;50.940;4.034;2022-08-19T10:13:45;6.90;;;5.75;;
52266;SDS011;38223;50.940;4.034;2022-08-19T10:16:20;7.15;;;6.00;;
52266;SDS011;38223;50.940;4.034;2022-08-19T10:18:50;7.92;;;6.67;;
52266;SDS011;38223;50.940;4.034;2022-08-19T10:21:22;7.25;;;6.53;;
52266;SDS011;38223;50.940;4.034;2022-08-19T10:23:56;7.85;;;6.15;;
52266;SDS011;38223;50.940;4.034;2022-08-19T10:26:26;10.25;;;7.08;;
52266;SDS011;38223;50.940;4.034;2022-08-19T10:29:00;6.50;;;5.87;;
52266;SDS011;38223;50.940;4.034;2022-08-19T10:31:30;7.30;;;6.58;;
52266;SDS011;38223;50.940;4.034;2022-08-19T10:34:04;10.38;;;6.25;;
52266;SDS011;38223;50.940;4.034;2022-08-19T10:36:37;10.23;;;6.08;;
52266;SDS011;38223;50.940;4.034;2022-08-19T10:39:09;7.08;;;6.35;;
52266;SDS011;38223;50.940;4.034;2022-08-19T10:41:41;6.80;;;6.12;;
52266;SDS011;38223;50.940;4.034;2022-08-19T10:44:17;6.62;;;5.42;;
52266;SDS011;38223;50.940;4.034;2022-08-19T10:46:48;7.55;;;5.60;;
52266;SDS011;38223;50.940;4.034;2022-08-19T10:49:24;7.28;;;5.80;;
52266;SDS011;38223;50.940;4.034;2022-08-19T10:51:53;7.42;;;5.37;;
52266;SDS011;38223;50.940;4.034;2022-08-19T10:54:41;6.47;;;5.87;;
52266;SDS011;38223;50.940;4.034;2022-08-19T10:57:32;6.75;;;5.72;;
52266;SDS011;38223;50.940;4.034;2022-08-19T11:00:05;6.58;;;5.83;;
52266;SDS011;38223;50.940;4.034;2022-08-19T11:02:38;8.93;;;6.40;;
52266;SDS011;38223;50.940;4.034;2022-08-19T11:05:14;7.97;;;5.83;;
52266;SDS011;38223;50.940;4.034;2022-08-19T11:07:43;7.75;;;6.10;;
52266;SDS011;38223;50.940;4.034;2022-08-19T11:10:15;9.28;;;5.95;;
52266;SDS011;38223;50.940;4.034;2022-08-19T11:12:52;11.68;;;5.50;;
52266;SDS011;38223;50.940;4.034;2022-08-19T11:15:21;5.85;;;5.20;;
52266;SDS011;38223;50.940;4.034;2022-08-19T11:17:56;6.17;;;5.58;;
52266;SDS011;38223;50.940;4.034;2022-08-19T11:20:30;7.22;;;5.55;;
52266;SDS011;38223;50.940;4.034;2022-08-19T11:23:04;7.15;;;4.95;;
52266;SDS011;38223;50.940;4.034;2022-08-19T11:25:39;6.25;;;4.40;;
52266;SDS011;38223;50.940;4.034;2022-08-19T11:28:10;5.85;;;3.95;;
52266;SDS011;38223;50.940;4.034;2022-08-19T11:30:42;7.53;;;5.53;;
52266;SDS011;38223;50.940;4.034;2022-08-19T11:33:14;6.62;;;5.87;;
52266;SDS011;38223;50.940;4.034;2022-08-19T11:35:44;9.13;;;6.47;;
52266;SDS011;38223;50.940;4.034;2022-08-19T11:38:12;7.95;;;7.17;;
52266;SDS011;38223;50.940;4.034;2022-08-19T11:40:44;9.30;;;7.62;;
52266;SDS011;38223;50.940;4.034;2022-08-19T11:43:15;12.98;;;7.03;;
52266;SDS011;38223;50.940;4.034;2022-08-19T11:45:46;7.90;;;7.10;;
52266;SDS011;38223;50.940;4.034;2022-08-19T11:48:19;8.10;;;7.37;;
52266;SDS011;38223;50.940;4.034;2022-08-19T11:50:53;7.80;;;7.20;;
52266;SDS011;38223;50.940;4.034;2022-08-19T11:53:24;10.08;;;8.18;;
52266;SDS011;38223;50.940;4.034;2022-08-19T11:55:56;8.78;;;7.70;;
52266;SDS011;38223;50.940;4.034;2022-08-19T11:58:28;8.25;;;7.12;;
52266;SDS011;38223;50.940;4.034;2022-08-19T12:01:04;7.17;;;6.58;;
52266;SDS011;38223;50.940;4.034;2022-08-19T12:03:40;7.35;;;6.70;;
52266;SDS011;38223;50.940;4.034;2022-08-19T12:06:16;6.12;;;5.62;;
52266;SDS011;38223;50.940;4.034;2022-08-19T12:08:50;5.97;;;5.47;;
52266;SDS011;38223;50.940;4.034;2022-08-19T12:11:25;6.58;;;6.00;;
52266;SDS011;38223;50.940;4.034;2022-08-19T12:13:56;7.37;;;5.58;;
52266;SDS011;38223;50.940;4.034;2022-08-19T12:16:29;5.17;;;4.67;;
52266;SDS011;38223;50.940;4.034;2022-08-19T12:18:59;4.97;;;4.53;;
52266;SDS011;38223;50.940;4.034;2022-08-19T12:21:35;6.12;;;5.22;;
52266;SDS011;38223;50.940;4.034;2022-08-19T12:24:05;5.30;;;4.80;;
52266;SDS011;38223;50.940;4.034;2022-08-19T12:26:40;5.20;;;4.70;;
52266;SDS011;38223;50.940;4.034;2022-08-19T12:29:12;6.75;;;4.75;;
52266;SDS011;38223;50.940;4.034;2022-08-19T12:31:43;5.92;;;5.15;;
52266;SDS011;38223;50.940;4.034;2022-08-19T12:34:16;9.00;;;5.10;;
52266;SDS011;38223;50.940;4.034;2022-08-19T12:36:47;5.30;;;4.75;;
52266;SDS011;38223;50.940;4.034;2022-08-19T12:39:20;6.17;;;5.20;;
52266;SDS011;38223;50.940;4.034;2022-08-19T12:41:56;5.17;;;4.70;;
52266;SDS011;38223;50.940;4.034;2022-08-19T12:44:25;5.42;;;4.92;;
52266;SDS011;38223;50.940;4.034;2022-08-19T12:46:57;5.03;;;4.53;;
52266;SDS011;38223;50.940;4.034;2022-08-19T12:49:30;5.62;;;5.12;;
52266;SDS011;38223;50.940;4.034;2022-08-19T12:52:02;6.10;;;3.90;;
52266;SDS011;38223;50.940;4.034;2022-08-19T12:54:34;4.40;;;3.37;;
52266;SDS011;38223;50.940;4.034;2022-08-19T12:57:07;5.15;;;3.75;;
52266;SDS011;38223;50.940;4.034;2022-08-19T12:59:39;4.00;;;3.70;;
52266;SDS011;38223;50.940;4.034;2022-08-19T13:02:12;3.42;;;3.12;;
52266;SDS011;38223;50.940;4.034;2022-08-19T13:05:00;13.60;;;3.77;;
52266;SDS011;38223;50.940;4.034;2022-08-19T13:07:39;3.87;;;3.47;;
52266;SDS011;38223;50.940;4.034;2022-08-19T13:10:11;5.87;;;3.58;;
52266;SDS011;38223;50.940;4.034;2022-08-19T13:13:13;5.85;;;3.77;;
52266;SDS011;38223;50.940;4.034;2022-08-19T13:15:47;3.67;;;3.37;;
52266;SDS011;38223;50.940;4.034;2022-08-19T13:18:16;3.98;;;2.67;;
52266;SDS011;38223;50.940;4.034;2022-08-19T13:20:50;2.50;;;2.30;;
52266;SDS011;38223;50.940;4.034;2022-08-19T13:23:20;2.80;;;1.77;;
52266;SDS011;38223;50.940;4.034;2022-08-19T13:26:01;3.20;;;1.80;;
52266;SDS011;38223;50.940;4.034;2022-08-19T13:28:35;3.37;;;1.90;;
52266;SDS011;38223;50.940;4.034;2022-08-19T13:31:14;2.00;;;1.75;;
52266;SDS011;38223;50.940;4.034;2022-08-19T13:34:05;3.22;;;1.52;;
52266;SDS011;38223;50.940;4.034;2022-08-19T13:36:37;1.85;;;1.72;;
52266;SDS011;38223;50.940;4.034;2022-08-19T13:39:12;2.33;;;1.32;;
52266;SDS011;38223;50.940;4.034;2022-08-19T13:41:43;3.43;;;1.63;;
52266;SDS011;38223;50.940;4.034;2022-08-19T13:44:14;2.40;;;1.65;;
52266;SDS011;38223;50.940;4.034;2022-08-19T13:46:50;2.30;;;1.72;;
52266;SDS011;38223;50.940;4.034;2022-08-19T13:49:18;3.65;;;2.90;;
52266;SDS011;38223;50.940;4.034;2022-08-19T13:51:51;3.72;;;3.42;;
52266;SDS011;38223;50.940;4.034;2022-08-19T13:54:26;3.92;;;3.22;;
52266;SDS011;38223;50.940;4.034;2022-08-19T13:57:00;3.77;;;2.90;;
52266;SDS011;38223;50.940;4.034;2022-08-19T13:59:34;4.28;;;3.00;;
52266;SDS011;38223;50.940;4.034;2022-08-19T14:02:06;3.25;;;3.05;;
52266;SDS011;38223;50.940;4.034;2022-08-19T14:04:40;30.00;;;26.80;;
52266;SDS011;38223;50.940;4.034;2022-08-19T14:07:14;4.35;;;3.98;;
52266;SDS011;38223;50.940;4.034;2022-08-19T14:09:46;4.58;;;3.85;;
52266;SDS011;38223;50.940;4.034;2022-08-19T14:12:18;4.45;;;4.00;;
52266;SDS011;38223;50.940;4.034;2022-08-19T14:14:50;3.87;;;3.17;;
52266;SDS011;38223;50.940;4.034;2022-08-19T14:17:21;3.50;;;3.20;;
52266;SDS011;38223;50.940;4.034;2022-08-19T14:20:00;2.80;;;2.22;;
52266;SDS011;38223;50.940;4.034;2022-08-19T14:22:34;2.85;;;2.02;;
52266;SDS011;38223;50.940;4.034;2022-08-19T14:25:08;5.50;;;1.90;;
52266;SDS011;38223;50.940;4.034;2022-08-19T14:27:42;1.50;;;1.40;;
52266;SDS011;38223;50.940;4.034;2022-08-19T14:30:16;2.37;;;1.55;;
52266;SDS011;38223;50.940;4.034;2022-08-19T14:32:54;1.80;;;1.30;;
52266;SDS011;38223;50.940;4.034;2022-08-19T14:35:24;1.65;;;1.25;;
52266;SDS011;38223;50.940;4.034;2022-08-19T14:37:57;1.70;;;1.47;;
52266;SDS011;38223;50.940;4.034;2022-08-19T14:40:30;2.22;;;1.85;;
52266;SDS011;38223;50.940;4.034;2022-08-19T14:43:05;2.95;;;1.80;;
52266;SDS011;38223;50.940;4.034;2022-08-19T14:45:36;2.70;;;1.72;;
52266;SDS011;38223;50.940;4.034;2022-08-19T14:48:10;2.00;;;1.47;;
52266;SDS011;38223;50.940;4.034;2022-08-19T14:50:42;4.20;;;1.60;;
52266;SDS011;38223;50.940;4.034;2022-08-19T14:53:15;2.35;;;2.12;;
52266;SDS011;38223;50.940;4.034;2022-08-19T14:55:47;3.12;;;1.80;;
52266;SDS011;38223;50.940;4.034;2022-08-19T14:58:22;3.17;;;1.60;;
52266;SDS011;38223;50.940;4.034;2022-08-19T15:00:56;2.27;;;1.72;;
52266;SDS011;38223;50.940;4.034;2022-08-19T15:03:25;2.92;;;1.70;;
52266;SDS011;38223;50.940;4.034;2022-08-19T15:06:00;3.05;;;2.10;;
52266;SDS011;38223;50.940;4.034;2022-08-19T15:08:34;1.65;;;1.40;;
52266;SDS011;38223;50.940;4.034;2022-08-19T15:11:17;4.40;;;1.82;;
52266;SDS011;38223;50.940;4.034;2022-08-19T15:13:46;1.95;;;1.52;;
52266;SDS011;38223;50.940;4.034;2022-08-19T15:16:22;3.02;;;2.10;;
52266;SDS011;38223;50.940;4.034;2022-08-19T15:18:52;3.25;;;1.75;;
52266;SDS011;38223;50.940;4.034;2022-08-19T15:21:27;3.77;;;1.98;;
52266;SDS011;38223;50.940;4.034;2022-08-19T15:24:02;3.83;;;1.98;;
52266;SDS011;38223;50.940;4.034;2022-08-19T15:26:39;5.00;;;2.05;;